Air Resources Laboratory banner image
Air Resources Laboratory web site National Oceanic and Atmospheric Administration (NOAA)

vt metar


K1V4 190854Z AUTO M04/M06 A3013 RMK AO1 SLP218 T10391061 58011=
KBTV 190854Z 18008KT 10SM OVC038 01/M03 A3012 RMK AO2 SLP202 T00061033 58015=
KDDH 190854Z AUTO 00000KT 2 1/2SM -SN BR OVC015 00/M01 A3012 RMK AO2 SLP207
 P0000 60001 T00001011 56016=
KEFK 190855Z AUTO 17004KT 10SM -SN SCT043 OVC070 M03/M06 A3012 RMK AO2
 T10351062=
KMPV 190851Z AUTO VRB03KT 10SM OVC017 M02/M04 A3015 RMK AO2 SLP226 T10221044
 58013=
KMVL 190854Z AUTO 00000KT 10SM SCT024 OVC033 M04/M06 A3012 RMK AO2 SLP213
 T10391056 56010 $=
KRUT 190856Z AUTO 00000KT 10SM UP OVC019 M02/M03 A3013 RMK AO2 UPB14 SLP224
 P0000 60000 T10171028 58015 FZRANO $=
KVSF 190854Z AUTO 00000KT 5SM -SN BR OVC012 M01/M02 A3017 RMK AO2 SLP223 P0001
 60001 T10111017 58008=